sensor_id;sensor_type;location;lat;lon;timestamp;P1;durP1;ratioP1;P2;durP2;ratioP2
6947;SDS011;3513;47.664;9.162;2023-07-02T00:00:36;11.13;;;2.83;;
6947;SDS011;3513;47.664;9.162;2023-07-02T00:03:03;5.80;;;2.87;;
6947;SDS011;3513;47.664;9.162;2023-07-02T00:05:29;2.83;;;2.63;;
6947;SDS011;3513;47.664;9.162;2023-07-02T00:07:55;3.57;;;2.50;;
6947;SDS011;3513;47.664;9.162;2023-07-02T00:10:21;2.30;;;2.10;;
6947;SDS011;3513;47.664;9.162;2023-07-02T00:12:46;7.50;;;3.70;;
6947;SDS011;3513;47.664;9.162;2023-07-02T00:15:12;4.20;;;2.93;;
6947;SDS011;3513;47.664;9.162;2023-07-02T00:17:38;3.53;;;3.13;;
6947;SDS011;3513;47.664;9.162;2023-07-02T00:20:05;3.53;;;2.93;;
6947;SDS011;3513;47.664;9.162;2023-07-02T00:22:40;4.23;;;3.00;;
6947;SDS011;3513;47.664;9.162;2023-07-02T00:25:09;2.93;;;2.73;;
6947;SDS011;3513;47.664;9.162;2023-07-02T00:27:35;3.63;;;3.10;;
6947;SDS011;3513;47.664;9.162;2023-07-02T00:30:02;6.53;;;3.33;;
6947;SDS011;3513;47.664;9.162;2023-07-02T00:32:28;3.53;;;3.10;;
6947;SDS011;3513;47.664;9.162;2023-07-02T00:34:53;3.03;;;2.83;;
6947;SDS011;3513;47.664;9.162;2023-07-02T00:37:19;3.77;;;3.00;;
6947;SDS011;3513;47.664;9.162;2023-07-02T00:39:44;3.20;;;2.90;;
6947;SDS011;3513;47.664;9.162;2023-07-02T00:42:10;3.57;;;2.90;;
6947;SDS011;3513;47.664;9.162;2023-07-02T00:44:36;3.50;;;2.57;;
6947;SDS011;3513;47.664;9.162;2023-07-02T00:47:08;3.23;;;2.50;;
6947;SDS011;3513;47.664;9.162;2023-07-02T00:49:35;3.50;;;2.20;;
6947;SDS011;3513;47.664;9.162;2023-07-02T00:52:01;2.97;;;2.10;;
6947;SDS011;3513;47.664;9.162;2023-07-02T00:54:30;2.17;;;2.07;;
6947;SDS011;3513;47.664;9.162;2023-07-02T00:56:56;3.00;;;1.63;;
6947;SDS011;3513;47.664;9.162;2023-07-02T00:59:22;2.07;;;1.97;;
6947;SDS011;3513;47.664;9.162;2023-07-02T01:01:48;4.53;;;1.70;;
6947;SDS011;3513;47.664;9.162;2023-07-02T01:04:16;7.30;;;2.93;;
6947;SDS011;3513;47.664;9.162;2023-07-02T01:06:43;4.70;;;2.30;;
6947;SDS011;3513;47.664;9.162;2023-07-02T01:09:10;3.17;;;2.13;;
6947;SDS011;3513;47.664;9.162;2023-07-02T01:11:42;2.73;;;2.30;;
6947;SDS011;3513;47.664;9.162;2023-07-02T01:16:41;5.63;;;1.90;;
6947;SDS011;3513;47.664;9.162;2023-07-02T01:19:12;3.90;;;2.33;;
6947;SDS011;3513;47.664;9.162;2023-07-02T01:21:44;2.70;;;1.97;;
6947;SDS011;3513;47.664;9.162;2023-07-02T01:24:11;3.57;;;2.93;;
6947;SDS011;3513;47.664;9.162;2023-07-02T01:26:37;4.63;;;2.60;;
6947;SDS011;3513;47.664;9.162;2023-07-02T01:29:16;4.30;;;2.20;;
6947;SDS011;3513;47.664;9.162;2023-07-02T01:31:43;2.80;;;2.23;;
6947;SDS011;3513;47.664;9.162;2023-07-02T01:34:09;6.77;;;2.43;;
6947;SDS011;3513;47.664;9.162;2023-07-02T01:36:35;3.03;;;2.83;;
6947;SDS011;3513;47.664;9.162;2023-07-02T01:39:02;2.57;;;2.20;;
6947;SDS011;3513;47.664;9.162;2023-07-02T01:41:28;2.03;;;1.93;;
6947;SDS011;3513;47.664;9.162;2023-07-02T01:43:53;2.30;;;2.10;;
6947;SDS011;3513;47.664;9.162;2023-07-02T01:46:19;2.70;;;2.00;;
6947;SDS011;3513;47.664;9.162;2023-07-02T01:48:45;2.87;;;2.63;;
6947;SDS011;3513;47.664;9.162;2023-07-02T01:51:11;6.20;;;3.50;;
6947;SDS011;3513;47.664;9.162;2023-07-02T01:53:36;2.83;;;2.57;;
6947;SDS011;3513;47.664;9.162;2023-07-02T01:56:02;2.90;;;2.60;;
6947;SDS011;3513;47.664;9.162;2023-07-02T01:58:28;4.10;;;2.50;;
6947;SDS011;3513;47.664;9.162;2023-07-02T02:00:53;3.77;;;3.20;;
6947;SDS011;3513;47.664;9.162;2023-07-02T02:03:19;3.30;;;3.00;;
6947;SDS011;3513;47.664;9.162;2023-07-02T02:05:45;3.30;;;3.00;;
6947;SDS011;3513;47.664;9.162;2023-07-02T02:08:10;6.93;;;3.00;;
6947;SDS011;3513;47.664;9.162;2023-07-02T02:10:36;4.63;;;3.33;;
6947;SDS011;3513;47.664;9.162;2023-07-02T02:13:01;4.47;;;3.60;;
6947;SDS011;3513;47.664;9.162;2023-07-02T02:15:27;5.60;;;2.70;;
6947;SDS011;3513;47.664;9.162;2023-07-02T02:17:52;4.43;;;2.83;;
6947;SDS011;3513;47.664;9.162;2023-07-02T02:20:18;2.47;;;2.27;;
6947;SDS011;3513;47.664;9.162;2023-07-02T02:22:44;3.50;;;3.07;;
6947;SDS011;3513;47.664;9.162;2023-07-02T02:25:09;9.30;;;3.60;;
6947;SDS011;3513;47.664;9.162;2023-07-02T02:27:35;7.10;;;3.27;;
6947;SDS011;3513;47.664;9.162;2023-07-02T02:30:00;5.63;;;3.43;;
6947;SDS011;3513;47.664;9.162;2023-07-02T02:32:26;4.93;;;3.60;;
6947;SDS011;3513;47.664;9.162;2023-07-02T02:34:51;3.87;;;3.43;;
6947;SDS011;3513;47.664;9.162;2023-07-02T02:37:18;3.67;;;3.27;;
6947;SDS011;3513;47.664;9.162;2023-07-02T02:39:43;3.73;;;3.30;;
6947;SDS011;3513;47.664;9.162;2023-07-02T02:42:09;5.97;;;4.07;;
6947;SDS011;3513;47.664;9.162;2023-07-02T02:44:35;6.47;;;3.90;;
6947;SDS011;3513;47.664;9.162;2023-07-02T02:47:00;4.33;;;3.50;;
6947;SDS011;3513;47.664;9.162;2023-07-02T02:49:26;3.87;;;3.47;;
6947;SDS011;3513;47.664;9.162;2023-07-02T02:51:51;3.70;;;3.30;;
6947;SDS011;3513;47.664;9.162;2023-07-02T02:54:17;4.30;;;3.87;;
6947;SDS011;3513;47.664;9.162;2023-07-02T02:56:42;9.93;;;5.93;;
6947;SDS011;3513;47.664;9.162;2023-07-02T02:59:08;5.40;;;2.93;;
6947;SDS011;3513;47.664;9.162;2023-07-02T03:01:34;4.23;;;3.83;;
6947;SDS011;3513;47.664;9.162;2023-07-02T03:03:59;5.87;;;4.20;;
6947;SDS011;3513;47.664;9.162;2023-07-02T03:06:25;7.07;;;4.50;;
6947;SDS011;3513;47.664;9.162;2023-07-02T03:08:50;9.27;;;4.87;;
6947;SDS011;3513;47.664;9.162;2023-07-02T03:11:16;5.73;;;4.90;;
6947;SDS011;3513;47.664;9.162;2023-07-02T03:13:41;8.60;;;4.90;;
6947;SDS011;3513;47.664;9.162;2023-07-02T03:16:07;8.10;;;4.80;;
6947;SDS011;3513;47.664;9.162;2023-07-02T03:18:32;8.97;;;5.23;;
6947;SDS011;3513;47.664;9.162;2023-07-02T03:20:58;10.13;;;6.67;;
6947;SDS011;3513;47.664;9.162;2023-07-02T03:23:24;6.40;;;5.60;;
6947;SDS011;3513;47.664;9.162;2023-07-02T03:25:50;11.77;;;5.37;;
6947;SDS011;3513;47.664;9.162;2023-07-02T03:28:16;7.53;;;5.50;;
6947;SDS011;3513;47.664;9.162;2023-07-02T03:30:41;8.50;;;5.70;;
6947;SDS011;3513;47.664;9.162;2023-07-02T03:33:08;9.07;;;6.27;;
6947;SDS011;3513;47.664;9.162;2023-07-02T03:35:34;6.53;;;4.90;;
6947;SDS011;3513;47.664;9.162;2023-07-02T03:38:00;7.00;;;6.07;;
6947;SDS011;3513;47.664;9.162;2023-07-02T03:40:26;11.33;;;5.13;;
6947;SDS011;3513;47.664;9.162;2023-07-02T03:42:51;11.33;;;6.20;;
6947;SDS011;3513;47.664;9.162;2023-07-02T03:45:17;8.67;;;5.37;;
6947;SDS011;3513;47.664;9.162;2023-07-02T03:47:42;8.20;;;5.70;;
6947;SDS011;3513;47.664;9.162;2023-07-02T03:50:08;7.50;;;5.70;;
6947;SDS011;3513;47.664;9.162;2023-07-02T03:52:34;9.57;;;6.50;;
6947;SDS011;3513;47.664;9.162;2023-07-02T03:55:00;13.03;;;5.23;;
6947;SDS011;3513;47.664;9.162;2023-07-02T03:57:25;8.50;;;6.13;;
6947;SDS011;3513;47.664;9.162;2023-07-02T03:59:51;9.00;;;4.93;;
6947;SDS011;3513;47.664;9.162;2023-07-02T04:02:17;7.60;;;5.80;;
6947;SDS011;3513;47.664;9.162;2023-07-02T04:04:43;10.70;;;5.43;;
6947;SDS011;3513;47.664;9.162;2023-07-02T04:07:08;11.10;;;5.70;;
6947;SDS011;3513;47.664;9.162;2023-07-02T04:09:34;8.20;;;6.20;;
6947;SDS011;3513;47.664;9.162;2023-07-02T04:12:00;8.60;;;5.60;;
6947;SDS011;3513;47.664;9.162;2023-07-02T04:14:26;8.00;;;4.70;;
6947;SDS011;3513;47.664;9.162;2023-07-02T04:16:52;11.77;;;6.60;;
6947;SDS011;3513;47.664;9.162;2023-07-02T04:19:17;10.03;;;5.80;;
6947;SDS011;3513;47.664;9.162;2023-07-02T04:21:43;10.57;;;5.80;;
6947;SDS011;3513;47.664;9.162;2023-07-02T04:24:08;6.27;;;5.33;;
6947;SDS011;3513;47.664;9.162;2023-07-02T04:26:34;8.73;;;4.73;;
6947;SDS011;3513;47.664;9.162;2023-07-02T04:29:01;9.50;;;6.57;;
6947;SDS011;3513;47.664;9.162;2023-07-02T04:31:27;8.47;;;5.50;;
6947;SDS011;3513;47.664;9.162;2023-07-02T04:33:52;9.80;;;6.27;;
6947;SDS011;3513;47.664;9.162;2023-07-02T04:36:18;9.37;;;6.00;;
6947;SDS011;3513;47.664;9.162;2023-07-02T04:38:44;9.60;;;5.87;;
6947;SDS011;3513;47.664;9.162;2023-07-02T04:41:09;8.87;;;6.50;;
6947;SDS011;3513;47.664;9.162;2023-07-02T04:43:35;13.67;;;7.30;;
6947;SDS011;3513;47.664;9.162;2023-07-02T04:46:01;14.20;;;7.87;;
6947;SDS011;3513;47.664;9.162;2023-07-02T04:48:26;14.93;;;7.40;;
6947;SDS011;3513;47.664;9.162;2023-07-02T04:50:52;14.60;;;7.13;;
6947;SDS011;3513;47.664;9.162;2023-07-02T04:53:18;14.53;;;8.07;;
6947;SDS011;3513;47.664;9.162;2023-07-02T04:55:43;21.07;;;7.60;;
6947;SDS011;3513;47.664;9.162;2023-07-02T04:58:09;15.57;;;8.20;;
6947;SDS011;3513;47.664;9.162;2023-07-02T05:00:34;23.17;;;8.80;;
6947;SDS011;3513;47.664;9.162;2023-07-02T05:03:00;13.93;;;8.77;;
6947;SDS011;3513;47.664;9.162;2023-07-02T05:05:26;15.23;;;9.20;;
6947;SDS011;3513;47.664;9.162;2023-07-02T05:07:51;17.40;;;8.73;;
6947;SDS011;3513;47.664;9.162;2023-07-02T05:10:19;18.67;;;8.87;;
6947;SDS011;3513;47.664;9.162;2023-07-02T05:12:45;18.97;;;10.87;;
6947;SDS011;3513;47.664;9.162;2023-07-02T05:15:11;21.50;;;9.63;;
6947;SDS011;3513;47.664;9.162;2023-07-02T05:17:37;16.77;;;10.23;;
6947;SDS011;3513;47.664;9.162;2023-07-02T05:20:03;19.90;;;9.87;;
6947;SDS011;3513;47.664;9.162;2023-07-02T05:22:32;28.17;;;11.53;;
6947;SDS011;3513;47.664;9.162;2023-07-02T05:24:57;17.40;;;9.83;;
6947;SDS011;3513;47.664;9.162;2023-07-02T05:27:23;19.57;;;11.67;;
6947;SDS011;3513;47.664;9.162;2023-07-02T05:29:49;21.70;;;10.60;;
6947;SDS011;3513;47.664;9.162;2023-07-02T05:32:14;22.40;;;10.90;;
6947;SDS011;3513;47.664;9.162;2023-07-02T05:34:40;25.13;;;12.13;;
6947;SDS011;3513;47.664;9.162;2023-07-02T05:37:05;20.37;;;10.87;;
6947;SDS011;3513;47.664;9.162;2023-07-02T05:39:33;21.87;;;10.90;;
6947;SDS011;3513;47.664;9.162;2023-07-02T05:41:58;19.37;;;10.93;;
6947;SDS011;3513;47.664;9.162;2023-07-02T05:44:24;23.13;;;12.30;;
6947;SDS011;3513;47.664;9.162;2023-07-02T05:46:50;26.77;;;11.63;;
6947;SDS011;3513;47.664;9.162;2023-07-02T05:49:15;16.83;;;10.40;;
6947;SDS011;3513;47.664;9.162;2023-07-02T05:51:41;28.83;;;12.47;;
6947;SDS011;3513;47.664;9.162;2023-07-02T05:54:06;21.47;;;11.33;;
6947;SDS011;3513;47.664;9.162;2023-07-02T05:56:32;23.93;;;10.53;;
6947;SDS011;3513;47.664;9.162;2023-07-02T05:58:57;21.23;;;10.73;;
6947;SDS011;3513;47.664;9.162;2023-07-02T06:01:23;28.10;;;10.90;;
6947;SDS011;3513;47.664;9.162;2023-07-02T06:03:49;19.03;;;10.10;;
6947;SDS011;3513;47.664;9.162;2023-07-02T06:06:15;23.50;;;10.40;;
6947;SDS011;3513;47.664;9.162;2023-07-02T06:08:41;21.53;;;10.00;;
6947;SDS011;3513;47.664;9.162;2023-07-02T06:11:06;24.33;;;12.73;;
6947;SDS011;3513;47.664;9.162;2023-07-02T06:13:32;38.70;;;11.30;;
6947;SDS011;3513;47.664;9.162;2023-07-02T06:15:58;19.70;;;11.47;;
6947;SDS011;3513;47.664;9.162;2023-07-02T06:18:23;24.77;;;10.43;;
6947;SDS011;3513;47.664;9.162;2023-07-02T06:20:50;27.27;;;11.90;;
6947;SDS011;3513;47.664;9.162;2023-07-02T06:23:15;23.57;;;11.57;;
6947;SDS011;3513;47.664;9.162;2023-07-02T06:25:41;26.63;;;11.03;;
6947;SDS011;3513;47.664;9.162;2023-07-02T06:28:06;26.63;;;12.50;;
6947;SDS011;3513;47.664;9.162;2023-07-02T06:30:32;31.20;;;13.33;;
6947;SDS011;3513;47.664;9.162;2023-07-02T06:32:58;18.50;;;12.27;;
6947;SDS011;3513;47.664;9.162;2023-07-02T06:35:24;25.30;;;12.20;;
6947;SDS011;3513;47.664;9.162;2023-07-02T06:37:49;21.00;;;11.50;;
6947;SDS011;3513;47.664;9.162;2023-07-02T06:40:15;22.70;;;13.30;;
6947;SDS011;3513;47.664;9.162;2023-07-02T06:42:40;27.13;;;13.03;;
6947;SDS011;3513;47.664;9.162;2023-07-02T06:45:06;22.73;;;11.50;;
6947;SDS011;3513;47.664;9.162;2023-07-02T06:47:32;24.23;;;13.37;;
6947;SDS011;3513;47.664;9.162;2023-07-02T06:49:57;28.90;;;13.63;;
6947;SDS011;3513;47.664;9.162;2023-07-02T06:52:24;38.37;;;13.80;;
6947;SDS011;3513;47.664;9.162;2023-07-02T06:54:50;31.87;;;13.43;;
6947;SDS011;3513;47.664;9.162;2023-07-02T06:57:15;24.50;;;14.97;;
6947;SDS011;3513;47.664;9.162;2023-07-02T06:59:41;23.77;;;13.00;;
6947;SDS011;3513;47.664;9.162;2023-07-02T07:02:07;31.53;;;14.47;;
6947;SDS011;3513;47.664;9.162;2023-07-02T07:04:32;33.13;;;14.67;;
6947;SDS011;3513;47.664;9.162;2023-07-02T07:06:59;25.83;;;13.40;;
6947;SDS011;3513;47.664;9.162;2023-07-02T07:09:26;23.60;;;12.50;;
6947;SDS011;3513;47.664;9.162;2023-07-02T07:11:52;28.13;;;12.90;;
6947;SDS011;3513;47.664;9.162;2023-07-02T07:14:17;27.83;;;13.87;;
6947;SDS011;3513;47.664;9.162;2023-07-02T07:16:43;40.97;;;13.77;;
6947;SDS011;3513;47.664;9.162;2023-07-02T07:19:08;25.50;;;13.13;;
6947;SDS011;3513;47.664;9.162;2023-07-02T07:21:34;21.97;;;12.43;;
6947;SDS011;3513;47.664;9.162;2023-07-02T07:24:00;26.47;;;13.83;;
6947;SDS011;3513;47.664;9.162;2023-07-02T07:26:25;41.43;;;14.00;;
6947;SDS011;3513;47.664;9.162;2023-07-02T07:28:51;22.07;;;13.27;;
6947;SDS011;3513;47.664;9.162;2023-07-02T07:31:16;25.47;;;14.20;;
6947;SDS011;3513;47.664;9.162;2023-07-02T07:33:42;34.80;;;14.97;;
6947;SDS011;3513;47.664;9.162;2023-07-02T07:36:08;27.17;;;15.70;;
6947;SDS011;3513;47.664;9.162;2023-07-02T07:38:34;31.77;;;17.40;;
6947;SDS011;3513;47.664;9.162;2023-07-02T07:40:59;38.70;;;18.03;;
6947;SDS011;3513;47.664;9.162;2023-07-02T07:43:25;40.47;;;19.60;;
6947;SDS011;3513;47.664;9.162;2023-07-02T07:45:50;50.00;;;22.70;;
6947;SDS011;3513;47.664;9.162;2023-07-02T07:48:16;38.07;;;19.97;;
6947;SDS011;3513;47.664;9.162;2023-07-02T07:50:42;35.90;;;19.30;;
6947;SDS011;3513;47.664;9.162;2023-07-02T07:53:07;39.53;;;20.63;;
6947;SDS011;3513;47.664;9.162;2023-07-02T07:55:33;39.33;;;20.10;;
6947;SDS011;3513;47.664;9.162;2023-07-02T07:57:58;44.63;;;21.37;;
6947;SDS011;3513;47.664;9.162;2023-07-02T08:00:24;44.77;;;21.27;;
6947;SDS011;3513;47.664;9.162;2023-07-02T08:02:51;46.00;;;23.03;;
6947;SDS011;3513;47.664;9.162;2023-07-02T08:05:20;58.87;;;24.97;;
6947;SDS011;3513;47.664;9.162;2023-07-02T08:07:46;47.17;;;23.00;;
6947;SDS011;3513;47.664;9.162;2023-07-02T08:10:11;48.40;;;23.27;;
6947;SDS011;3513;47.664;9.162;2023-07-02T08:12:37;41.90;;;22.37;;
6947;SDS011;3513;47.664;9.162;2023-07-02T08:15:03;47.80;;;25.40;;
6947;SDS011;3513;47.664;9.162;2023-07-02T08:17:28;50.13;;;23.40;;
6947;SDS011;3513;47.664;9.162;2023-07-02T08:19:56;45.50;;;23.07;;
6947;SDS011;3513;47.664;9.162;2023-07-02T08:22:22;53.33;;;23.33;;
6947;SDS011;3513;47.664;9.162;2023-07-02T08:24:47;40.77;;;21.93;;
6947;SDS011;3513;47.664;9.162;2023-07-02T08:27:14;58.37;;;24.80;;
6947;SDS011;3513;47.664;9.162;2023-07-02T08:29:43;52.07;;;23.70;;
6947;SDS011;3513;47.664;9.162;2023-07-02T08:32:09;46.93;;;23.67;;
6947;SDS011;3513;47.664;9.162;2023-07-02T08:34:35;43.93;;;24.70;;
6947;SDS011;3513;47.664;9.162;2023-07-02T08:37:00;42.50;;;23.37;;
6947;SDS011;3513;47.664;9.162;2023-07-02T08:39:26;50.63;;;25.20;;
6947;SDS011;3513;47.664;9.162;2023-07-02T08:41:52;53.00;;;22.57;;
6947;SDS011;3513;47.664;9.162;2023-07-02T08:44:19;52.90;;;24.30;;
6947;SDS011;3513;47.664;9.162;2023-07-02T08:46:46;58.40;;;25.97;;
6947;SDS011;3513;47.664;9.162;2023-07-02T08:49:15;49.37;;;25.27;;
6947;SDS011;3513;47.664;9.162;2023-07-02T08:51:42;59.73;;;28.80;;
6947;SDS011;3513;47.664;9.162;2023-07-02T08:54:09;50.73;;;26.00;;
6947;SDS011;3513;47.664;9.162;2023-07-02T08:56:35;50.20;;;25.17;;
6947;SDS011;3513;47.664;9.162;2023-07-02T08:59:00;65.07;;;28.57;;
6947;SDS011;3513;47.664;9.162;2023-07-02T09:01:26;72.83;;;27.73;;
6947;SDS011;3513;47.664;9.162;2023-07-02T09:03:57;55.47;;;26.70;;
6947;SDS011;3513;47.664;9.162;2023-07-02T09:06:25;53.10;;;27.00;;
6947;SDS011;3513;47.664;9.162;2023-07-02T09:08:51;55.43;;;28.00;;
6947;SDS011;3513;47.664;9.162;2023-07-02T09:11:16;59.03;;;28.30;;
6947;SDS011;3513;47.664;9.162;2023-07-02T09:13:46;64.40;;;29.73;;
6947;SDS011;3513;47.664;9.162;2023-07-02T09:19:06;61.13;;;28.20;;
6947;SDS011;3513;47.664;9.162;2023-07-02T09:21:44;54.60;;;28.80;;
6947;SDS011;3513;47.664;9.162;2023-07-02T09:26:48;74.10;;;30.87;;
6947;SDS011;3513;47.664;9.162;2023-07-02T09:29:21;55.67;;;30.10;;
6947;SDS011;3513;47.664;9.162;2023-07-02T09:31:49;68.20;;;27.90;;
6947;SDS011;3513;47.664;9.162;2023-07-02T09:34:15;60.07;;;27.80;;
6947;SDS011;3513;47.664;9.162;2023-07-02T09:36:41;63.83;;;29.60;;
6947;SDS011;3513;47.664;9.162;2023-07-02T09:39:28;59.37;;;30.03;;
6947;SDS011;3513;47.664;9.162;2023-07-02T09:41:57;56.87;;;29.50;;
6947;SDS011;3513;47.664;9.162;2023-07-02T09:44:28;53.13;;;27.43;;
6947;SDS011;3513;47.664;9.162;2023-07-02T09:47:05;58.97;;;28.70;;
6947;SDS011;3513;47.664;9.162;2023-07-02T09:49:40;60.13;;;27.20;;
6947;SDS011;3513;47.664;9.162;2023-07-02T09:52:11;56.50;;;26.90;;
6947;SDS011;3513;47.664;9.162;2023-07-02T09:54:38;53.47;;;26.57;;
6947;SDS011;3513;47.664;9.162;2023-07-02T09:57:04;66.20;;;28.90;;
6947;SDS011;3513;47.664;9.162;2023-07-02T09:59:31;59.07;;;27.13;;
6947;SDS011;3513;47.664;9.162;2023-07-02T10:01:56;57.70;;;30.17;;
6947;SDS011;3513;47.664;9.162;2023-07-02T10:04:22;54.33;;;26.27;;
6947;SDS011;3513;47.664;9.162;2023-07-02T10:09:19;49.33;;;28.27;;
6947;SDS011;3513;47.664;9.162;2023-07-02T10:11:45;63.97;;;29.77;;
6947;SDS011;3513;47.664;9.162;2023-07-02T10:14:11;51.13;;;25.57;;
6947;SDS011;3513;47.664;9.162;2023-07-02T10:16:53;46.37;;;24.90;;
6947;SDS011;3513;47.664;9.162;2023-07-02T10:19:20;48.20;;;27.20;;
6947;SDS011;3513;47.664;9.162;2023-07-02T10:21:46;56.67;;;27.63;;
6947;SDS011;3513;47.664;9.162;2023-07-02T10:24:25;56.77;;;26.00;;
6947;SDS011;3513;47.664;9.162;2023-07-02T10:26:55;48.03;;;25.70;;
6947;SDS011;3513;47.664;9.162;2023-07-02T10:29:25;51.77;;;25.30;;
6947;SDS011;3513;47.664;9.162;2023-07-02T10:31:52;40.53;;;22.73;;
6947;SDS011;3513;47.664;9.162;2023-07-02T10:34:29;55.13;;;26.87;;
6947;SDS011;3513;47.664;9.162;2023-07-02T10:36:55;47.80;;;26.40;;
6947;SDS011;3513;47.664;9.162;2023-07-02T10:39:21;42.93;;;22.40;;
6947;SDS011;3513;47.664;9.162;2023-07-02T10:41:47;46.83;;;24.77;;
6947;SDS011;3513;47.664;9.162;2023-07-02T10:44:14;42.50;;;22.20;;
6947;SDS011;3513;47.664;9.162;2023-07-02T10:46:43;40.57;;;22.93;;
6947;SDS011;3513;47.664;9.162;2023-07-02T10:49:13;48.60;;;23.33;;
6947;SDS011;3513;47.664;9.162;2023-07-02T10:51:39;43.23;;;21.50;;
6947;SDS011;3513;47.664;9.162;2023-07-02T10:54:05;39.77;;;21.33;;
6947;SDS011;3513;47.664;9.162;2023-07-02T10:56:31;33.23;;;18.60;;
6947;SDS011;3513;47.664;9.162;2023-07-02T10:58:57;34.23;;;18.10;;
6947;SDS011;3513;47.664;9.162;2023-07-02T11:01:30;29.03;;;16.17;;
6947;SDS011;3513;47.664;9.162;2023-07-02T11:06:22;27.43;;;15.30;;
6947;SDS011;3513;47.664;9.162;2023-07-02T11:08:48;23.27;;;13.63;;
6947;SDS011;3513;47.664;9.162;2023-07-02T11:11:15;32.30;;;17.87;;
6947;SDS011;3513;47.664;9.162;2023-07-02T11:13:44;30.10;;;17.90;;
6947;SDS011;3513;47.664;9.162;2023-07-02T11:16:24;26.83;;;15.67;;
6947;SDS011;3513;47.664;9.162;2023-07-02T11:19:05;32.00;;;19.87;;
6947;SDS011;3513;47.664;9.162;2023-07-02T11:21:35;30.00;;;16.60;;
6947;SDS011;3513;47.664;9.162;2023-07-02T11:24:02;24.30;;;16.17;;
6947;SDS011;3513;47.664;9.162;2023-07-02T11:26:35;35.33;;;18.67;;
6947;SDS011;3513;47.664;9.162;2023-07-02T11:29:01;29.73;;;15.33;;
6947;SDS011;3513;47.664;9.162;2023-07-02T11:31:27;29.90;;;16.13;;
6947;SDS011;3513;47.664;9.162;2023-07-02T11:33:53;26.40;;;15.90;;
6947;SDS011;3513;47.664;9.162;2023-07-02T11:36:19;35.20;;;15.40;;
6947;SDS011;3513;47.664;9.162;2023-07-02T11:38:48;27.40;;;15.40;;
6947;SDS011;3513;47.664;9.162;2023-07-02T11:41:14;31.30;;;16.90;;
6947;SDS011;3513;47.664;9.162;2023-07-02T11:43:40;26.13;;;15.47;;
6947;SDS011;3513;47.664;9.162;2023-07-02T11:46:05;28.43;;;14.47;;
6947;SDS011;3513;47.664;9.162;2023-07-02T11:48:31;27.37;;;16.10;;
6947;SDS011;3513;47.664;9.162;2023-07-02T11:50:56;24.10;;;13.87;;
6947;SDS011;3513;47.664;9.162;2023-07-02T11:53:22;23.63;;;13.23;;
6947;SDS011;3513;47.664;9.162;2023-07-02T11:55:48;21.80;;;13.43;;
6947;SDS011;3513;47.664;9.162;2023-07-02T11:58:14;23.57;;;12.13;;
6947;SDS011;3513;47.664;9.162;2023-07-02T12:00:39;21.90;;;13.27;;
6947;SDS011;3513;47.664;9.162;2023-07-02T12:03:05;18.90;;;12.10;;
6947;SDS011;3513;47.664;9.162;2023-07-02T12:05:30;19.43;;;11.80;;
6947;SDS011;3513;47.664;9.162;2023-07-02T12:07:56;18.57;;;11.53;;
6947;SDS011;3513;47.664;9.162;2023-07-02T12:10:21;19.90;;;11.43;;
6947;SDS011;3513;47.664;9.162;2023-07-02T12:12:47;32.30;;;13.00;;
6947;SDS011;3513;47.664;9.162;2023-07-02T12:15:12;25.50;;;14.43;;
6947;SDS011;3513;47.664;9.162;2023-07-02T12:17:38;18.73;;;12.10;;
6947;SDS011;3513;47.664;9.162;2023-07-02T12:20:04;18.50;;;11.17;;
6947;SDS011;3513;47.664;9.162;2023-07-02T12:22:30;20.87;;;12.63;;
6947;SDS011;3513;47.664;9.162;2023-07-02T12:24:55;23.23;;;13.77;;
6947;SDS011;3513;47.664;9.162;2023-07-02T12:27:22;21.73;;;14.10;;
6947;SDS011;3513;47.664;9.162;2023-07-02T12:29:48;19.30;;;12.67;;
6947;SDS011;3513;47.664;9.162;2023-07-02T12:32:14;22.10;;;13.10;;
6947;SDS011;3513;47.664;9.162;2023-07-02T12:34:39;24.60;;;12.87;;
6947;SDS011;3513;47.664;9.162;2023-07-02T12:37:05;27.30;;;13.50;;
6947;SDS011;3513;47.664;9.162;2023-07-02T12:39:31;20.27;;;13.57;;
6947;SDS011;3513;47.664;9.162;2023-07-02T12:41:56;26.10;;;13.53;;
6947;SDS011;3513;47.664;9.162;2023-07-02T12:44:22;28.07;;;14.50;;
6947;SDS011;3513;47.664;9.162;2023-07-02T12:46:47;29.33;;;15.60;;
6947;SDS011;3513;47.664;9.162;2023-07-02T12:49:13;24.47;;;13.83;;
6947;SDS011;3513;47.664;9.162;2023-07-02T12:51:39;24.93;;;13.53;;
6947;SDS011;3513;47.664;9.162;2023-07-02T12:54:04;21.47;;;12.10;;
6947;SDS011;3513;47.664;9.162;2023-07-02T12:56:30;20.70;;;13.27;;
6947;SDS011;3513;47.664;9.162;2023-07-02T12:58:55;20.30;;;11.40;;
6947;SDS011;3513;47.664;9.162;2023-07-02T13:01:21;23.97;;;13.13;;
6947;SDS011;3513;47.664;9.162;2023-07-02T13:03:47;20.23;;;12.07;;
6947;SDS011;3513;47.664;9.162;2023-07-02T13:06:13;20.67;;;13.30;;
6947;SDS011;3513;47.664;9.162;2023-07-02T13:08:39;24.83;;;13.43;;
6947;SDS011;3513;47.664;9.162;2023-07-02T13:11:04;24.70;;;13.87;;
6947;SDS011;3513;47.664;9.162;2023-07-02T13:13:30;27.60;;;13.90;;
6947;SDS011;3513;47.664;9.162;2023-07-02T13:15:56;23.63;;;12.77;;
6947;SDS011;3513;47.664;9.162;2023-07-02T13:18:22;23.03;;;14.20;;
6947;SDS011;3513;47.664;9.162;2023-07-02T13:20:48;25.33;;;13.70;;
6947;SDS011;3513;47.664;9.162;2023-07-02T13:23:14;21.60;;;12.40;;
6947;SDS011;3513;47.664;9.162;2023-07-02T13:25:39;22.70;;;13.40;;
6947;SDS011;3513;47.664;9.162;2023-07-02T13:28:05;22.83;;;12.93;;
6947;SDS011;3513;47.664;9.162;2023-07-02T13:30:30;21.07;;;13.07;;
6947;SDS011;3513;47.664;9.162;2023-07-02T13:32:56;29.50;;;14.37;;
6947;SDS011;3513;47.664;9.162;2023-07-02T13:35:22;21.87;;;12.63;;
6947;SDS011;3513;47.664;9.162;2023-07-02T13:37:47;17.90;;;12.00;;
6947;SDS011;3513;47.664;9.162;2023-07-02T13:40:13;21.47;;;12.90;;
6947;SDS011;3513;47.664;9.162;2023-07-02T13:42:40;24.43;;;13.10;;
6947;SDS011;3513;47.664;9.162;2023-07-02T13:45:08;20.60;;;12.90;;
6947;SDS011;3513;47.664;9.162;2023-07-02T13:47:35;21.23;;;12.20;;
6947;SDS011;3513;47.664;9.162;2023-07-02T13:50:01;21.13;;;10.90;;
6947;SDS011;3513;47.664;9.162;2023-07-02T13:52:27;19.93;;;11.03;;
6947;SDS011;3513;47.664;9.162;2023-07-02T13:54:52;16.50;;;10.00;;
6947;SDS011;3513;47.664;9.162;2023-07-02T13:57:18;19.83;;;10.57;;
6947;SDS011;3513;47.664;9.162;2023-07-02T13:59:43;16.50;;;10.13;;
6947;SDS011;3513;47.664;9.162;2023-07-02T14:02:09;18.80;;;11.17;;
6947;SDS011;3513;47.664;9.162;2023-07-02T14:04:34;18.63;;;10.43;;
6947;SDS011;3513;47.664;9.162;2023-07-02T14:07:00;20.77;;;11.00;;
6947;SDS011;3513;47.664;9.162;2023-07-02T14:09:27;17.20;;;10.77;;
6947;SDS011;3513;47.664;9.162;2023-07-02T14:11:53;18.70;;;11.00;;
6947;SDS011;3513;47.664;9.162;2023-07-02T14:14:18;15.23;;;10.83;;
6947;SDS011;3513;47.664;9.162;2023-07-02T14:16:44;17.40;;;11.30;;
6947;SDS011;3513;47.664;9.162;2023-07-02T14:19:10;19.70;;;12.53;;
6947;SDS011;3513;47.664;9.162;2023-07-02T14:21:37;17.40;;;10.17;;
6947;SDS011;3513;47.664;9.162;2023-07-02T14:24:02;16.67;;;10.00;;
6947;SDS011;3513;47.664;9.162;2023-07-02T14:26:29;35.77;;;9.60;;
6947;SDS011;3513;47.664;9.162;2023-07-02T14:28:55;14.33;;;9.70;;
6947;SDS011;3513;47.664;9.162;2023-07-02T14:31:21;19.27;;;11.67;;
6947;SDS011;3513;47.664;9.162;2023-07-02T14:33:46;17.83;;;9.87;;
6947;SDS011;3513;47.664;9.162;2023-07-02T14:36:12;16.57;;;10.23;;
6947;SDS011;3513;47.664;9.162;2023-07-02T14:38:38;13.20;;;9.30;;
6947;SDS011;3513;47.664;9.162;2023-07-02T14:41:03;19.17;;;11.20;;
6947;SDS011;3513;47.664;9.162;2023-07-02T14:43:29;15.40;;;9.50;;
6947;SDS011;3513;47.664;9.162;2023-07-02T14:45:57;21.23;;;11.10;;
6947;SDS011;3513;47.664;9.162;2023-07-02T14:48:25;13.83;;;9.60;;
6947;SDS011;3513;47.664;9.162;2023-07-02T14:50:52;17.00;;;10.60;;
6947;SDS011;3513;47.664;9.162;2023-07-02T14:53:22;16.50;;;9.93;;
6947;SDS011;3513;47.664;9.162;2023-07-02T14:55:49;23.17;;;9.83;;
6947;SDS011;3513;47.664;9.162;2023-07-02T14:58:15;18.40;;;11.17;;
6947;SDS011;3513;47.664;9.162;2023-07-02T15:00:46;16.93;;;10.83;;
6947;SDS011;3513;47.664;9.162;2023-07-02T15:03:13;16.83;;;10.13;;
6947;SDS011;3513;47.664;9.162;2023-07-02T15:05:39;17.67;;;10.23;;